createdAt,value
2023-01-27T00:00:54.768Z,11.13
2023-01-27T00:03:22.071Z,5.17
2023-01-27T00:05:49.188Z,13.13
2023-01-27T00:08:18.594Z,6.33
2023-01-27T00:10:45.821Z,7.57
2023-01-27T00:13:31.814Z,9.17
2023-01-27T00:15:58.748Z,11.17
2023-01-27T00:18:25.860Z,6.13
2023-01-27T00:21:16.414Z,4.63
2023-01-27T00:24:01.682Z,10.27
2023-01-27T00:26:28.559Z,8.30
2023-01-27T00:28:57.724Z,10.03
2023-01-27T00:31:43.263Z,6.47
2023-01-27T00:34:10.254Z,9.63
2023-01-27T00:36:38.748Z,5.97
2023-01-27T00:39:07.236Z,7.97
2023-01-27T00:41:34.621Z,7.73
2023-01-27T00:44:02.182Z,7.53
2023-01-27T00:46:29.604Z,4.37
2023-01-27T00:48:56.600Z,6.80
2023-01-27T00:51:23.944Z,5.27
2023-01-27T00:53:50.760Z,7.93
2023-01-27T00:56:17.952Z,7.90
2023-01-27T00:58:46.930Z,6.13
2023-01-27T01:01:16.268Z,10.27
2023-01-27T01:03:43.628Z,8.37
2023-01-27T01:06:12.550Z,10.03
2023-01-27T01:08:39.586Z,10.53
2023-01-27T01:11:08.669Z,8.37
2023-01-27T01:13:35.766Z,8.37
2023-01-27T01:16:11.815Z,10.27
2023-01-27T01:18:39.113Z,8.07
2023-01-27T01:21:09.426Z,6.97
2023-01-27T01:23:42.737Z,9.10
2023-01-27T01:26:11.381Z,12.43
2023-01-27T01:28:38.667Z,7.77
2023-01-27T01:31:11.551Z,10.07
2023-01-27T01:33:38.771Z,12.23
2023-01-27T01:36:14.287Z,9.23
2023-01-27T01:38:41.592Z,9.83
2023-01-27T01:41:12.613Z,10.63
2023-01-27T01:43:39.527Z,13.40
2023-01-27T01:46:08.566Z,13.43
2023-01-27T01:48:42.417Z,15.17
2023-01-27T01:51:29.809Z,12.03
2023-01-27T01:54:03.778Z,16.57
2023-01-27T01:56:36.406Z,13.70
2023-01-27T01:59:12.842Z,16.00
2023-01-27T02:01:39.774Z,15.77
2023-01-27T02:04:11.844Z,13.00
2023-01-27T02:06:45.694Z,10.93
2023-01-27T02:09:12.511Z,11.60
2023-01-27T02:11:39.344Z,20.20
2023-01-27T02:14:06.292Z,15.40
2023-01-27T02:16:33.567Z,11.47
2023-01-27T02:19:00.357Z,15.77
2023-01-27T02:21:27.283Z,12.90
2023-01-27T02:24:12.280Z,12.27
2023-01-27T02:26:43.249Z,15.27
2023-01-27T02:29:15.156Z,13.73
2023-01-27T02:31:42.460Z,13.47
2023-01-27T02:34:11.156Z,14.67
2023-01-27T02:36:52.739Z,17.87
2023-01-27T02:39:23.963Z,18.07
2023-01-27T02:41:53.752Z,22.10
2023-01-27T02:44:21.175Z,22.77
2023-01-27T02:46:47.980Z,19.00
2023-01-27T02:49:14.910Z,24.13
2023-01-27T02:51:41.829Z,25.17
2023-01-27T02:54:08.831Z,25.10
2023-01-27T02:56:35.668Z,17.83
2023-01-27T02:59:03.617Z,16.27
2023-01-27T03:01:32.663Z,18.97
2023-01-27T03:03:59.879Z,15.30
2023-01-27T03:06:26.690Z,14.33
2023-01-27T03:08:53.536Z,15.27
2023-01-27T03:11:40.375Z,13.73
2023-01-27T03:14:08.613Z,13.00
2023-01-27T03:16:54.353Z,18.67
2023-01-27T03:19:21.306Z,14.50
2023-01-27T03:21:51.234Z,15.97
2023-01-27T03:24:18.404Z,10.30
2023-01-27T03:26:45.615Z,13.97
2023-01-27T03:29:30.864Z,16.30
2023-01-27T03:31:57.744Z,12.60
2023-01-27T03:34:24.649Z,11.93
2023-01-27T03:37:09.987Z,16.07
2023-01-27T03:39:55.340Z,16.53
2023-01-27T03:42:40.580Z,11.40
2023-01-27T03:45:26.430Z,9.30
2023-01-27T03:47:53.160Z,10.43
2023-01-27T03:50:19.881Z,13.37
2023-01-27T03:53:03.235Z,11.93
2023-01-27T03:55:35.318Z,10.63
2023-01-27T03:58:19.592Z,10.90
2023-01-27T04:00:49.389Z,14.07
2023-01-27T04:03:34.690Z,10.97
2023-01-27T04:06:25.417Z,12.07
2023-01-27T04:08:52.302Z,14.10
2023-01-27T04:11:37.621Z,13.10
2023-01-27T04:14:06.374Z,12.80
2023-01-27T04:16:34.445Z,15.37
2023-01-27T04:19:01.437Z,16.30
2023-01-27T04:21:28.924Z,13.60
2023-01-27T04:23:56.134Z,17.67
2023-01-27T04:26:23.916Z,14.57
2023-01-27T04:28:51.323Z,16.07
2023-01-27T04:31:18.659Z,15.90
2023-01-27T04:33:45.624Z,16.37
2023-01-27T04:36:14.305Z,16.23
2023-01-27T04:38:41.086Z,18.40
2023-01-27T04:41:07.919Z,19.83
2023-01-27T04:43:34.760Z,16.70
2023-01-27T04:46:01.693Z,16.23
2023-01-27T04:48:28.575Z,15.17
2023-01-27T04:50:55.347Z,18.57
2023-01-27T04:53:22.100Z,17.33
2023-01-27T04:55:49.897Z,17.33
2023-01-27T04:58:18.174Z,18.83
2023-01-27T05:00:45.592Z,14.70
2023-01-27T05:03:12.560Z,16.83
2023-01-27T05:05:39.634Z,16.07
2023-01-27T05:08:08.310Z,13.10
2023-01-27T05:10:35.380Z,20.40
2023-01-27T05:13:02.934Z,17.23
2023-01-27T05:15:30.223Z,15.80
2023-01-27T05:17:57.050Z,17.13
2023-01-27T05:20:23.830Z,19.07
2023-01-27T05:22:51.583Z,17.57
2023-01-27T05:25:18.476Z,21.07
2023-01-27T05:27:45.669Z,16.20
2023-01-27T05:30:12.958Z,17.83
2023-01-27T05:32:39.796Z,19.97
2023-01-27T05:35:07.120Z,23.13
2023-01-27T05:37:33.982Z,24.10
2023-01-27T05:40:00.723Z,15.50
2023-01-27T05:42:27.525Z,18.87
2023-01-27T05:44:54.247Z,19.40
2023-01-27T05:47:21.151Z,20.63
2023-01-27T05:49:48.081Z,15.80
2023-01-27T05:52:14.821Z,18.43
2023-01-27T05:54:41.630Z,16.10
2023-01-27T05:57:08.486Z,17.37
2023-01-27T05:59:35.233Z,17.60
2023-01-27T06:02:02.346Z,17.70
2023-01-27T06:04:29.169Z,17.87
2023-01-27T06:06:55.993Z,21.33
2023-01-27T06:09:22.737Z,15.07
2023-01-27T06:11:49.523Z,17.50
2023-01-27T06:14:16.381Z,21.87
2023-01-27T06:16:44.127Z,14.50
2023-01-27T06:19:11.310Z,17.13
2023-01-27T06:21:38.116Z,13.20
2023-01-27T06:24:14.133Z,22.23
2023-01-27T06:26:40.957Z,12.60
2023-01-27T06:29:07.778Z,12.00
2023-01-27T06:31:34.670Z,15.17
2023-01-27T06:34:01.516Z,11.93
2023-01-27T06:36:28.276Z,11.00
2023-01-27T06:38:55.203Z,16.17
2023-01-27T06:41:22.073Z,16.20
2023-01-27T06:43:48.912Z,12.83
2023-01-27T06:46:15.801Z,11.43
2023-01-27T06:48:42.867Z,11.83
2023-01-27T06:51:09.744Z,14.17
2023-01-27T06:53:38.087Z,13.53
2023-01-27T06:56:05.884Z,12.17
2023-01-27T06:58:33.580Z,12.17
2023-01-27T07:01:00.391Z,9.67
2023-01-27T07:03:27.482Z,13.57
2023-01-27T07:05:54.522Z,14.77
2023-01-27T07:08:21.374Z,11.37
2023-01-27T07:10:48.241Z,11.03
2023-01-27T07:13:16.029Z,8.60
2023-01-27T07:15:43.009Z,8.77
2023-01-27T07:18:11.407Z,7.33
2023-01-27T07:20:38.225Z,8.97
2023-01-27T07:23:05.898Z,10.03
2023-01-27T07:25:35.205Z,8.40
2023-01-27T07:28:03.345Z,9.17
2023-01-27T07:30:31.148Z,7.47
2023-01-27T07:33:10.183Z,7.87
2023-01-27T07:35:38.499Z,9.47
2023-01-27T07:38:07.180Z,10.63
2023-01-27T07:40:34.833Z,9.00
2023-01-27T07:43:08.981Z,11.23
2023-01-27T07:45:35.960Z,8.23
2023-01-27T07:48:07.962Z,9.57
2023-01-27T07:50:37.037Z,8.47
2023-01-27T07:53:05.230Z,13.50
2023-01-27T07:55:33.195Z,9.30
2023-01-27T07:58:00.185Z,10.90
2023-01-27T08:00:28.254Z,9.80
2023-01-27T08:02:56.833Z,11.90
2023-01-27T08:05:24.127Z,8.63
2023-01-27T08:07:52.168Z,8.40
2023-01-27T08:10:19.283Z,10.83
2023-01-27T08:12:46.517Z,8.40
2023-01-27T08:15:14.785Z,13.30
2023-01-27T08:17:42.254Z,9.30
2023-01-27T08:20:11.356Z,8.43
2023-01-27T08:22:38.400Z,10.13
2023-01-27T08:25:05.569Z,9.73
2023-01-27T08:27:32.643Z,9.57
2023-01-27T08:29:59.444Z,9.50
2023-01-27T08:32:26.471Z,9.30
2023-01-27T08:34:54.418Z,12.83
2023-01-27T08:37:21.273Z,16.83
2023-01-27T08:39:48.113Z,12.50
2023-01-27T08:42:14.885Z,11.57
2023-01-27T08:44:41.668Z,11.70
2023-01-27T08:47:08.474Z,11.67
2023-01-27T08:49:35.241Z,9.47
2023-01-27T08:52:03.670Z,9.93
2023-01-27T08:54:30.832Z,11.80
2023-01-27T08:56:57.600Z,10.30
2023-01-27T08:59:24.451Z,9.23
2023-01-27T09:01:51.232Z,11.23
2023-01-27T09:04:18.077Z,10.43
2023-01-27T09:06:48.299Z,10.93
2023-01-27T09:09:15.082Z,11.57
2023-01-27T09:11:44.619Z,9.93
2023-01-27T09:14:12.434Z,9.63
2023-01-27T09:16:39.350Z,8.90
2023-01-27T09:19:06.352Z,8.83
2023-01-27T09:21:33.255Z,7.90
2023-01-27T09:24:00.130Z,7.27
2023-01-27T09:26:27.014Z,9.83
2023-01-27T09:28:53.814Z,10.97
2023-01-27T09:31:20.814Z,8.47
2023-01-27T09:33:47.658Z,6.83
2023-01-27T09:36:19.006Z,8.50
2023-01-27T09:38:55.293Z,10.47
2023-01-27T09:41:53.486Z,8.47
2023-01-27T09:44:42.434Z,8.57
2023-01-27T09:47:38.325Z,7.50
2023-01-27T09:50:23.968Z,9.03
2023-01-27T09:53:41.883Z,8.33
2023-01-27T09:56:56.051Z,9.57
2023-01-27T09:59:30.386Z,7.70
2023-01-27T10:02:18.133Z,9.20
2023-01-27T10:05:27.021Z,9.03
2023-01-27T10:08:07.811Z,10.77
2023-01-27T10:10:54.305Z,7.80
2023-01-27T10:13:21.148Z,11.00
2023-01-27T10:16:26.168Z,8.73
2023-01-27T10:19:10.047Z,7.30
2023-01-27T10:22:18.429Z,8.07
2023-01-27T10:24:45.164Z,10.53
2023-01-27T10:27:21.679Z,8.73
2023-01-27T10:30:03.437Z,10.53
2023-01-27T10:32:54.955Z,9.33
2023-01-27T10:35:32.800Z,8.57
2023-01-27T10:38:11.510Z,8.83
2023-01-27T10:40:51.927Z,9.40
2023-01-27T10:43:35.002Z,10.90
2023-01-27T10:46:14.972Z,9.73
2023-01-27T10:48:47.756Z,8.37
2023-01-27T10:51:30.807Z,10.47
2023-01-27T10:54:12.327Z,9.63
2023-01-27T10:56:56.249Z,10.53
2023-01-27T10:59:46.373Z,8.23
2023-01-27T11:02:29.283Z,12.83
2023-01-27T11:05:03.565Z,9.93
2023-01-27T11:07:33.403Z,10.27
2023-01-27T11:10:16.046Z,9.60
2023-01-27T11:12:47.975Z,9.70
2023-01-27T11:15:29.296Z,9.70
2023-01-27T11:18:18.762Z,10.47
2023-01-27T11:20:54.409Z,8.13
2023-01-27T11:23:35.611Z,8.00
2023-01-27T11:26:39.634Z,8.17
2023-01-27T11:29:23.778Z,14.90
2023-01-27T11:32:24.192Z,13.00
2023-01-27T11:35:03.019Z,8.53
2023-01-27T11:37:37.423Z,7.50
2023-01-27T11:40:13.441Z,10.90
2023-01-27T11:42:40.668Z,7.33
2023-01-27T11:45:13.590Z,7.50
2023-01-27T11:47:42.589Z,6.40
2023-01-27T11:50:27.271Z,7.50
2023-01-27T11:53:27.837Z,6.07
2023-01-27T11:56:06.345Z,5.63
2023-01-27T11:59:00.803Z,5.80
2023-01-27T12:01:47.914Z,5.53
2023-01-27T12:04:25.569Z,5.27
2023-01-27T12:06:55.726Z,4.77
2023-01-27T12:09:47.862Z,4.87
2023-01-27T12:12:15.038Z,5.30
2023-01-27T12:14:58.963Z,3.80
2023-01-27T12:17:32.128Z,5.80
2023-01-27T12:20:19.273Z,5.10
2023-01-27T12:22:49.738Z,3.53
2023-01-27T12:25:24.639Z,6.57
2023-01-27T12:27:58.987Z,4.47
2023-01-27T12:30:29.667Z,4.77
2023-01-27T12:32:58.064Z,4.17
2023-01-27T12:35:36.476Z,5.57
2023-01-27T12:38:06.623Z,4.43
2023-01-27T12:40:34.599Z,3.90
2023-01-27T12:43:11.140Z,5.13
2023-01-27T12:45:38.791Z,4.27
2023-01-27T12:48:13.902Z,9.67
2023-01-27T12:50:43.132Z,5.23
2023-01-27T12:53:14.304Z,5.33
2023-01-27T12:56:08.879Z,7.60
2023-01-27T12:58:44.992Z,5.13
2023-01-27T13:01:31.350Z,3.97
2023-01-27T13:04:07.000Z,4.87
2023-01-27T13:06:39.379Z,4.80
2023-01-27T13:09:06.184Z,4.40
2023-01-27T13:11:41.005Z,4.27
2023-01-27T13:14:15.686Z,5.43
2023-01-27T13:16:52.642Z,4.03
2023-01-27T13:19:20.175Z,6.73
2023-01-27T13:21:50.510Z,7.20
2023-01-27T13:24:38.784Z,4.03
2023-01-27T13:27:14.511Z,4.93
2023-01-27T13:29:42.877Z,3.87
2023-01-27T13:32:15.822Z,4.13
2023-01-27T13:35:01.434Z,4.10
2023-01-27T13:37:44.204Z,7.03
2023-01-27T13:40:29.546Z,4.17
2023-01-27T13:43:11.774Z,21.87
2023-01-27T13:46:02.690Z,4.33
2023-01-27T13:48:37.787Z,2.30
2023-01-27T13:51:15.549Z,2.20
2023-01-27T13:53:43.937Z,3.33
2023-01-27T13:56:19.703Z,2.93
2023-01-27T13:59:14.462Z,3.60
2023-01-27T14:01:59.234Z,3.33
2023-01-27T14:04:47.771Z,3.03
2023-01-27T14:08:13.261Z,5.43
2023-01-27T14:11:14.422Z,6.23
2023-01-27T14:13:47.608Z,3.87
2023-01-27T14:16:53.143Z,3.10
2023-01-27T14:19:22.744Z,4.30
2023-01-27T14:22:08.373Z,4.10
2023-01-27T14:24:46.523Z,3.70
2023-01-27T14:27:16.678Z,10.23
2023-01-27T14:29:52.676Z,6.60
2023-01-27T14:32:48.535Z,4.03
2023-01-27T14:35:31.401Z,5.30
2023-01-27T14:38:21.723Z,5.60
2023-01-27T14:41:36.360Z,6.07
2023-01-27T14:44:12.748Z,5.77
2023-01-27T14:47:10.752Z,7.00
2023-01-27T14:50:05.226Z,6.23
2023-01-27T14:52:35.015Z,6.93
2023-01-27T14:55:26.356Z,7.53
2023-01-27T14:58:05.233Z,7.47
2023-01-27T15:00:58.871Z,7.27
2023-01-27T15:03:45.267Z,6.33
2023-01-27T15:06:41.460Z,3.63
2023-01-27T15:09:33.257Z,3.53
2023-01-27T15:12:12.433Z,4.37
2023-01-27T15:14:44.811Z,3.30
2023-01-27T15:17:44.842Z,3.60
2023-01-27T15:20:20.343Z,4.40
2023-01-27T15:23:08.417Z,3.53
2023-01-27T15:25:55.002Z,5.27
2023-01-27T15:28:28.258Z,5.03
2023-01-27T15:31:26.718Z,4.57
2023-01-27T15:33:57.763Z,5.13
2023-01-27T15:36:27.870Z,6.13
2023-01-27T15:39:09.689Z,5.00
2023-01-27T15:42:10.494Z,4.17
2023-01-27T15:44:57.207Z,4.60
2023-01-27T15:47:29.038Z,3.47
2023-01-27T15:50:21.932Z,4.33
2023-01-27T15:52:50.093Z,5.10
2023-01-27T15:55:28.947Z,3.20
2023-01-27T15:58:09.312Z,3.70
2023-01-27T16:00:39.073Z,5.87
2023-01-27T16:03:19.602Z,4.17
2023-01-27T16:05:51.106Z,3.30
2023-01-27T16:08:19.871Z,3.37
2023-01-27T16:10:46.805Z,3.30
2023-01-27T16:13:31.706Z,3.07
2023-01-27T16:16:18.472Z,3.27
2023-01-27T16:19:00.999Z,3.97
2023-01-27T16:21:53.662Z,4.87
2023-01-27T16:24:31.026Z,4.83
2023-01-27T16:27:14.697Z,6.00
2023-01-27T16:29:57.684Z,4.20
2023-01-27T16:32:31.191Z,6.57
2023-01-27T16:35:04.331Z,6.67
2023-01-27T16:37:35.261Z,6.67
2023-01-27T16:40:20.978Z,3.93
2023-01-27T16:42:57.430Z,4.80
2023-01-27T16:45:38.827Z,4.57
2023-01-27T16:48:12.881Z,10.13
2023-01-27T16:50:41.788Z,7.57
2023-01-27T16:53:21.700Z,6.13
2023-01-27T16:56:06.667Z,4.63
2023-01-27T16:58:46.012Z,5.63
2023-01-27T17:01:41.912Z,15.03
2023-01-27T17:04:20.167Z,12.17
2023-01-27T17:06:49.448Z,14.37
2023-01-27T17:09:22.150Z,12.07
2023-01-27T17:11:49.225Z,4.53
2023-01-27T17:14:29.888Z,3.93
2023-01-27T17:17:01.327Z,3.63
2023-01-27T17:19:32.212Z,4.80
2023-01-27T17:22:06.609Z,5.83
2023-01-27T17:24:36.837Z,4.10
2023-01-27T17:27:21.971Z,4.97
2023-01-27T17:29:51.327Z,4.17
2023-01-27T17:32:41.025Z,5.13
2023-01-27T17:35:20.499Z,4.23
2023-01-27T17:37:48.356Z,7.90
2023-01-27T17:40:21.607Z,5.47
2023-01-27T17:42:49.270Z,4.10
2023-01-27T17:45:31.965Z,4.17
2023-01-27T17:48:00.385Z,3.60
2023-01-27T17:50:37.950Z,3.43
2023-01-27T17:53:10.589Z,4.40
2023-01-27T17:55:38.297Z,4.20
2023-01-27T17:58:16.240Z,4.57
2023-01-27T18:00:45.362Z,4.07
2023-01-27T18:03:14.993Z,4.27
2023-01-27T18:05:45.174Z,5.63
2023-01-27T18:08:12.042Z,9.10
2023-01-27T18:10:44.163Z,4.23
2023-01-27T18:13:19.696Z,4.30
2023-01-27T18:15:49.592Z,7.33
2023-01-27T18:18:28.568Z,7.10
2023-01-27T18:21:01.387Z,5.77
2023-01-27T18:23:35.114Z,5.50
2023-01-27T18:26:16.868Z,6.97
2023-01-27T18:28:45.873Z,6.43
2023-01-27T18:31:18.448Z,6.03
2023-01-27T18:33:46.473Z,5.10
2023-01-27T18:36:23.631Z,4.77
2023-01-27T18:38:53.760Z,4.40
2023-01-27T18:41:29.518Z,4.70
2023-01-27T18:43:56.803Z,8.27
2023-01-27T18:46:25.582Z,5.50
2023-01-27T18:48:52.831Z,4.83
2023-01-27T18:51:19.715Z,3.70
2023-01-27T18:53:46.542Z,4.30
2023-01-27T18:56:13.375Z,6.50
2023-01-27T18:58:41.381Z,5.07
2023-01-27T19:01:17.957Z,4.27
2023-01-27T19:03:47.824Z,6.30
2023-01-27T19:06:16.832Z,4.87
2023-01-27T19:08:48.927Z,5.27
2023-01-27T19:11:16.271Z,7.33
2023-01-27T19:13:44.736Z,5.53
2023-01-27T19:16:15.225Z,5.23
2023-01-27T19:18:42.868Z,5.30
2023-01-27T19:21:13.089Z,7.50
2023-01-27T19:23:44.395Z,8.07
2023-01-27T19:26:19.590Z,6.53
2023-01-27T19:28:57.558Z,6.03
2023-01-27T19:31:24.717Z,6.40
2023-01-27T19:33:51.590Z,4.30
2023-01-27T19:36:23.826Z,5.00
2023-01-27T19:39:11.298Z,5.17
2023-01-27T19:41:38.071Z,8.87
2023-01-27T19:44:06.889Z,4.83
2023-01-27T19:46:35.207Z,4.07
2023-01-27T19:49:02.671Z,4.10
2023-01-27T19:51:30.055Z,5.03
2023-01-27T19:53:56.945Z,8.73
2023-01-27T19:56:24.626Z,3.97
2023-01-27T19:58:53.608Z,3.90
2023-01-27T20:01:22.560Z,3.70
2023-01-27T20:03:50.540Z,7.73
2023-01-27T20:06:19.169Z,3.30
2023-01-27T20:08:46.038Z,4.60
2023-01-27T20:11:35.451Z,6.07
2023-01-27T20:14:04.429Z,3.07
2023-01-27T20:16:31.558Z,4.23
2023-01-27T20:19:00.183Z,4.43
2023-01-27T20:21:27.629Z,5.17
2023-01-27T20:23:54.709Z,4.47
2023-01-27T20:26:22.647Z,5.43
2023-01-27T20:28:49.949Z,3.53
2023-01-27T20:31:19.292Z,4.33
2023-01-27T20:33:50.055Z,5.40
2023-01-27T20:36:23.836Z,6.00
2023-01-27T20:38:51.183Z,4.57
2023-01-27T20:41:20.803Z,4.57
2023-01-27T20:43:48.702Z,4.77
2023-01-27T20:46:17.934Z,4.60
2023-01-27T20:48:44.771Z,4.83
2023-01-27T20:51:14.493Z,5.63
2023-01-27T20:53:45.800Z,6.27
2023-01-27T20:56:18.118Z,7.20
2023-01-27T20:58:46.119Z,7.75
2023-01-27T21:01:14.583Z,5.80
2023-01-27T21:03:42.436Z,6.00
2023-01-27T21:06:11.928Z,6.53
2023-01-27T21:08:39.003Z,6.50
2023-01-27T21:11:10.767Z,6.13
2023-01-27T21:13:37.676Z,7.00
2023-01-27T21:16:04.725Z,6.97
2023-01-27T21:18:31.682Z,7.80
2023-01-27T21:21:03.890Z,6.00
2023-01-27T21:23:33.171Z,7.83
2023-01-27T21:26:11.616Z,13.43
2023-01-27T21:28:38.409Z,7.60
2023-01-27T21:31:11.228Z,9.67
2023-01-27T21:33:39.336Z,6.20
2023-01-27T21:36:10.412Z,5.87
2023-01-27T21:38:37.885Z,9.37
2023-01-27T21:41:06.823Z,9.00
2023-01-27T21:43:52.273Z,8.97
2023-01-27T21:46:19.226Z,9.57
2023-01-27T21:48:46.385Z,10.63
2023-01-27T21:51:14.029Z,7.33
2023-01-27T21:53:41.597Z,7.10
2023-01-27T21:56:10.278Z,7.80
2023-01-27T21:58:37.254Z,7.60
2023-01-27T22:01:10.788Z,46.97
2023-01-27T22:03:38.345Z,10.97
2023-01-27T22:06:09.623Z,9.47
2023-01-27T22:08:37.631Z,7.17
2023-01-27T22:11:06.424Z,10.90
2023-01-27T22:13:33.838Z,7.93
2023-01-27T22:16:01.663Z,13.97
2023-01-27T22:18:28.875Z,9.73
2023-01-27T22:20:56.319Z,8.90
2023-01-27T22:23:24.576Z,8.57
2023-01-27T22:25:54.270Z,10.67
2023-01-27T22:28:23.061Z,9.40
2023-01-27T22:30:50.292Z,8.63
2023-01-27T22:33:17.142Z,9.67
2023-01-27T22:35:44.243Z,7.20
2023-01-27T22:38:11.107Z,6.40
2023-01-27T22:40:37.915Z,6.83
2023-01-27T22:43:10.285Z,13.27
2023-01-27T22:45:40.518Z,10.07
2023-01-27T22:48:08.884Z,6.67
2023-01-27T22:50:37.018Z,8.23
2023-01-27T22:53:05.297Z,7.33
2023-01-27T22:55:32.722Z,7.63
2023-01-27T22:57:59.679Z,6.53
2023-01-27T23:00:26.446Z,9.53
2023-01-27T23:02:53.431Z,7.40
2023-01-27T23:05:20.550Z,8.73
2023-01-27T23:07:47.832Z,6.70
2023-01-27T23:10:14.751Z,11.20
2023-01-27T23:12:41.539Z,9.80
2023-01-27T23:15:08.962Z,10.57
2023-01-27T23:17:35.897Z,12.27
2023-01-27T23:20:03.047Z,7.60
2023-01-27T23:22:29.821Z,8.47
2023-01-27T23:24:56.626Z,10.10
2023-01-27T23:27:23.386Z,9.90
2023-01-27T23:29:50.257Z,7.57
2023-01-27T23:32:17.071Z,8.87
2023-01-27T23:34:43.912Z,7.70
2023-01-27T23:37:11.018Z,6.93
2023-01-27T23:39:37.941Z,8.07
2023-01-27T23:42:04.857Z,10.10
2023-01-27T23:44:31.891Z,10.93
2023-01-27T23:46:58.688Z,10.30
2023-01-27T23:49:25.557Z,10.20
2023-01-27T23:51:52.336Z,10.20
2023-01-27T23:54:19.116Z,11.40
2023-01-27T23:56:45.909Z,10.40
2023-01-27T23:59:13.346Z,10.13
